Time;durP1;ratioP1;P1;durP2;ratioP2;P2;SDS_P1;SDS_P2;PMS_P1;PMS_P2;Temp;Humidity;BMP_temperature;BMP_pressure;BME280_temperature;BME280_humidity;BME280_pressure;Samples;Min_cycle;Max_cycle;Signal;HPM_P1;HPM_P2
2023/09/01 00:00:59;;;;;;;18.83;17.52;;;20.00;99.90;;;;;;5011314;28;20049;-76
2023/09/01 00:03:25;;;;;;;19.00;17.55;;;20.00;99.90;;;;;;5013332;28;20033;-76
2023/09/01 00:05:51;;;;;;;21.83;20.33;;;20.00;99.90;;;;;;5012995;28;20403;-75
2023/09/01 00:08:17;;;;;;;26.60;24.73;;;20.00;99.90;;;;;;5013198;28;20030;-76
2023/09/01 00:10:44;;;;;;;30.77;28.77;;;20.00;99.90;;;;;;5011477;28;20352;-76
2023/09/01 00:13:10;;;;;;;33.67;31.75;;;20.00;99.90;;;;;;5013080;28;20025;-76
2023/09/01 00:15:36;;;;;;;26.85;25.27;;;20.10;99.90;;;;;;5012403;28;20045;-76
2023/09/01 00:18:02;;;;;;;28.20;26.33;;;20.10;99.90;;;;;;5013023;28;20033;-76
2023/09/01 00:20:28;;;;;;;23.08;21.52;;;20.00;99.90;;;;;;5012739;28;20037;-76
2023/09/01 00:22:55;;;;;;;30.65;28.48;;;20.00;99.90;;;;;;5012855;28;20475;-76
2023/09/01 00:25:21;;;;;;;21.13;19.88;;;20.00;99.90;;;;;;5012363;28;20026;-76
2023/09/01 00:27:47;;;;;;;27.05;25.35;;;20.00;99.90;;;;;;5012440;28;20032;-76
2023/09/01 00:30:13;;;;;;;26.08;24.08;;;20.00;99.90;;;;;;5012095;28;20026;-76
2023/09/01 00:32:39;;;;;;;24.23;22.52;;;20.00;99.90;;;;;;5013590;28;20041;-75
2023/09/01 00:35:06;;;;;;;23.35;21.17;;;20.00;99.90;;;;;;5012782;28;20038;-76
2023/09/01 00:37:32;;;;;;;25.08;23.48;;;20.00;99.90;;;;;;5011168;28;20038;-76
2023/09/01 00:39:58;;;;;;;23.20;21.67;;;20.00;99.90;;;;;;5011064;28;20517;-76
2023/09/01 00:42:24;;;;;;;26.13;24.63;;;20.00;99.90;;;;;;5012572;28;20034;-76
2023/09/01 00:44:50;;;;;;;24.05;22.60;;;20.00;99.90;;;;;;5012676;28;20497;-76
2023/09/01 00:47:17;;;;;;;19.50;18.15;;;19.90;99.90;;;;;;5010750;28;20041;-76
2023/09/01 00:49:43;;;;;;;20.75;19.25;;;19.80;99.90;;;;;;5010922;28;20042;-76
2023/09/01 00:52:09;;;;;;;20.25;18.95;;;19.90;99.90;;;;;;5012183;28;20045;-75
2023/09/01 00:54:36;;;;;;;15.95;14.82;;;19.90;99.90;;;;;;5012163;28;20034;-76
2023/09/01 00:57:02;;;;;;;16.33;14.93;;;20.00;99.90;;;;;;5011088;28;20030;-76
2023/09/01 00:59:28;;;;;;;16.48;15.02;;;20.00;99.90;;;;;;5012492;28;20033;-76
2023/09/01 01:01:54;;;;;;;17.77;16.38;;;20.00;99.90;;;;;;5010534;28;20418;-76
2023/09/01 01:04:20;;;;;;;16.63;15.23;;;20.00;99.90;;;;;;4994957;28;20042;-76
2023/09/01 01:07:06;;;;;;;15.52;14.15;;;20.10;99.90;;;;;;5010513;28;20095;-76
2023/09/01 01:09:49;;;;;;;15.38;14.30;;;20.10;99.90;;;;;;5010952;28;20484;-76
2023/09/01 01:12:41;;;;;;;15.32;14.02;;;20.10;99.90;;;;;;5008319;28;20029;-76
2023/09/01 01:15:09;;;;;;;;;;;20.10;99.90;;;;;;5012354;28;20038;-76
2023/09/01 01:17:43;;;;;;;14.38;13.00;;;20.10;99.90;;;;;;5010962;28;19916;-76
2023/09/01 01:20:15;;;;;;;13.18;12.30;;;20.00;99.90;;;;;;5010978;28;20022;-76
2023/09/01 01:22:49;;;;;;;16.60;15.15;;;19.90;99.90;;;;;;5012351;28;20033;-75
2023/09/01 01:25:15;;;;;;;21.65;20.15;;;19.90;99.90;;;;;;4994001;28;20034;-76
2023/09/01 01:27:45;;;;;;;19.55;17.95;;;19.90;99.90;;;;;;5011013;28;20033;-76
2023/09/01 01:30:15;;;;;;;28.25;26.08;;;19.90;99.90;;;;;;5010400;28;20030;-76
2023/09/01 01:32:44;;;;;;;25.05;22.75;;;19.90;99.90;;;;;;4991599;28;20069;-76
2023/09/01 01:35:32;;;;;;;20.27;18.90;;;19.90;99.90;;;;;;4991322;28;20038;-76
2023/09/01 01:38:21;;;;;;;27.35;25.77;;;19.80;99.90;;;;;;4990774;28;20042;-76
2023/09/01 01:40:51;;;;;;;27.20;25.15;;;19.80;99.90;;;;;;4998060;28;20375;-76
2023/09/01 01:43:21;;;;;;;23.45;21.85;;;19.70;99.90;;;;;;5014803;28;20030;-76
2023/09/01 01:45:47;;;;;;;21.05;19.45;;;19.70;99.90;;;;;;5014056;28;20042;-76
2023/09/01 01:48:13;;;;;;;18.15;16.63;;;19.80;99.90;;;;;;5014644;28;20399;-75
2023/09/01 01:50:41;;;;;;;21.95;20.35;;;19.70;99.90;;;;;;4997530;28;20034;-76
2023/09/01 01:53:07;;;;;;;23.23;21.40;;;19.70;99.90;;;;;;5015385;28;20406;-76
2023/09/01 01:55:34;;;;;;;23.17;21.58;;;19.70;99.90;;;;;;5013728;28;20049;-77
2023/09/01 01:58:00;;;;;;;26.35;24.42;;;19.80;99.90;;;;;;5012485;28;20474;-76
2023/09/01 02:00:27;;;;;;;24.48;22.42;;;19.80;99.90;;;;;;4995749;28;20034;-76
2023/09/01 02:02:54;;;;;;;23.48;21.77;;;19.80;99.90;;;;;;5008908;28;20030;-76
2023/09/01 02:05:20;;;;;;;24.63;22.73;;;19.80;99.90;;;;;;5012370;28;20033;-76
2023/09/01 02:07:46;;;;;;;23.38;21.58;;;19.80;99.90;;;;;;5012359;28;20038;-76
2023/09/01 02:10:12;;;;;;;24.13;22.13;;;19.80;99.90;;;;;;4996235;28;20034;-76
2023/09/01 02:12:39;;;;;;;22.70;21.05;;;19.80;99.90;;;;;;5013702;28;20034;-76
2023/09/01 02:15:08;;;;;;;21.70;19.92;;;19.80;99.90;;;;;;5013561;28;20058;-75
2023/09/01 02:17:36;;;;;;;20.80;19.25;;;19.80;99.90;;;;;;5012451;28;20105;-77
2023/09/01 02:20:16;;;;;;;25.75;23.65;;;19.80;99.90;;;;;;5012322;28;20407;-76
2023/09/01 02:22:47;;;;;;;23.52;22.05;;;19.80;99.90;;;;;;4992768;28;20030;-76
2023/09/01 02:25:13;;;;;;;25.30;23.20;;;19.80;99.90;;;;;;4994591;28;20042;-75
2023/09/01 02:27:40;;;;;;;24.65;22.75;;;19.80;99.90;;;;;;5012373;28;20478;-76
2023/09/01 02:30:10;;;;;;;25.13;23.33;;;19.80;99.90;;;;;;5011906;28;20036;-75
2023/09/01 02:32:37;;;;;;;25.88;23.67;;;19.80;99.90;;;;;;5009265;28;20038;-76
2023/09/01 02:35:06;;;;;;;29.83;27.42;;;19.80;99.90;;;;;;5012408;28;20034;-76
2023/09/01 02:37:32;;;;;;;27.90;25.92;;;19.80;99.90;;;;;;5013657;28;20502;-76
2023/09/01 02:40:00;;;;;;;28.25;26.08;;;19.90;99.90;;;;;;5014720;28;20037;-76
2023/09/01 02:42:26;;;;;;;28.15;26.10;;;19.90;99.90;;;;;;5014613;28;20029;-76
2023/09/01 02:44:53;;;;;;;29.48;27.27;;;20.00;99.90;;;;;;5013560;28;20042;-76
2023/09/01 02:47:19;;;;;;;29.80;27.88;;;19.90;99.90;;;;;;5012493;28;20038;-76
2023/09/01 02:49:45;;;;;;;27.83;25.88;;;19.90;99.90;;;;;;5014509;28;20045;-76
2023/09/01 02:52:11;;;;;;;27.10;25.20;;;19.80;99.90;;;;;;5013334;28;20471;-76
2023/09/01 02:54:37;;;;;;;28.58;26.63;;;19.80;99.90;;;;;;5014508;28;20049;-76
2023/09/01 02:57:04;;;;;;;32.28;29.45;;;19.80;99.90;;;;;;5014182;28;20475;-76
2023/09/01 02:59:30;;;;;;;31.25;29.05;;;19.80;99.90;;;;;;5014525;28;20037;-76
2023/09/01 03:01:56;;;;;;;33.80;31.20;;;19.80;99.90;;;;;;5012405;28;20034;-76
2023/09/01 03:04:22;;;;;;;34.30;32.05;;;19.80;99.90;;;;;;5014479;28;20030;-76
2023/09/01 03:06:48;;;;;;;34.28;31.85;;;19.80;99.90;;;;;;5012355;28;20030;-76
2023/09/01 03:09:15;;;;;;;33.55;30.63;;;19.80;99.90;;;;;;5014320;28;20025;-75
2023/09/01 03:11:41;;;;;;;32.85;30.63;;;19.80;99.90;;;;;;5012947;28;20046;-76
2023/09/01 03:14:07;;;;;;;30.23;27.85;;;19.80;99.90;;;;;;5014137;28;20034;-76
2023/09/01 03:16:34;;;;;;;38.67;36.13;;;19.80;99.90;;;;;;5013287;28;20052;-76
2023/09/01 03:19:00;;;;;;;40.00;37.40;;;19.80;99.90;;;;;;5014034;28;20030;-76
2023/09/01 03:21:30;;;;;;;37.83;34.88;;;19.80;99.90;;;;;;5013455;28;20041;-76
2023/09/01 03:23:57;;;;;;;33.17;30.58;;;19.80;99.90;;;;;;5012906;28;20026;-76
2023/09/01 03:26:23;;;;;;;37.20;34.53;;;19.90;99.90;;;;;;5013667;28;20046;-76
2023/09/01 03:28:50;;;;;;;37.70;35.30;;;19.90;99.90;;;;;;5013921;28;20022;-76
2023/09/01 03:31:16;;;;;;;39.17;36.58;;;20.00;99.90;;;;;;5013210;28;20048;-76
2023/09/01 03:33:43;;;;;;;33.72;31.30;;;20.00;99.90;;;;;;5012441;28;20026;-71
2023/09/01 03:36:09;;;;;;;31.83;29.40;;;20.10;99.90;;;;;;5013344;28;20053;-76
2023/09/01 03:38:35;;;;;;;40.63;37.78;;;20.10;99.90;;;;;;5012389;28;20037;-75
2023/09/01 03:41:05;;;;;;;36.63;34.35;;;20.10;99.90;;;;;;5012360;28;20053;-76
2023/09/01 03:43:31;;;;;;;40.08;37.42;;;20.10;99.90;;;;;;5012443;28;20552;-76
2023/09/01 03:45:58;;;;;;;41.08;38.53;;;20.00;99.90;;;;;;5011636;28;20038;-76
2023/09/01 03:48:25;;;;;;;42.03;39.38;;;20.00;99.90;;;;;;5012054;28;20467;-76
2023/09/01 03:51:16;;;;;;;48.22;45.22;;;20.10;99.90;;;;;;5013168;28;20753;-76
2023/09/01 03:53:42;;;;;;;39.35;36.75;;;20.10;99.90;;;;;;5013635;28;20042;-76
2023/09/01 03:56:17;;;;;;;43.60;40.85;;;20.00;99.90;;;;;;5011805;28;20041;-76
2023/09/01 03:58:43;;;;;;;45.60;42.88;;;20.00;99.90;;;;;;5013759;28;20391;-76
2023/09/01 04:01:11;;;;;;;47.17;44.08;;;19.90;99.90;;;;;;5011383;28;20041;-76
2023/09/01 04:03:44;;;;;;;45.33;42.33;;;19.90;99.90;;;;;;4994997;28;20057;-76
2023/09/01 04:06:10;;;;;;;38.88;36.10;;;19.90;99.90;;;;;;5011742;28;20541;-76
2023/09/01 04:08:37;;;;;;;48.30;45.05;;;20.00;99.90;;;;;;5013201;28;20409;-75
2023/09/01 04:11:03;;;;;;;43.30;40.83;;;20.00;99.90;;;;;;5012870;28;20030;-76
2023/09/01 04:13:32;;;;;;;42.08;39.53;;;20.00;99.90;;;;;;5012941;28;20038;-76
2023/09/01 04:15:59;;;;;;;38.45;35.83;;;20.00;99.90;;;;;;5011134;28;20050;-76
2023/09/01 04:18:25;;;;;;;42.75;39.67;;;20.00;99.90;;;;;;5012630;28;20098;-76
2023/09/01 04:20:52;;;;;;;38.38;35.67;;;20.00;99.90;;;;;;5012772;28;20399;-76
2023/09/01 04:23:18;;;;;;;45.15;42.15;;;19.90;99.90;;;;;;5011667;28;20042;-76
2023/09/01 04:25:45;;;;;;;41.80;38.90;;;19.90;99.90;;;;;;5012663;28;20038;-76
2023/09/01 04:28:12;;;;;;;37.50;35.10;;;19.90;99.90;;;;;;5011618;28;20029;-76
2023/09/01 04:30:38;;;;;;;37.42;34.60;;;19.90;99.90;;;;;;5010818;28;20034;-76
2023/09/01 04:33:05;;;;;;;36.42;34.08;;;20.00;99.90;;;;;;5011356;28;20040;-76
2023/09/01 04:35:31;;;;;;;45.45;42.13;;;20.00;99.90;;;;;;5011141;28;20041;-76
2023/09/01 04:37:57;;;;;;;38.92;36.40;;;20.00;99.90;;;;;;5011754;28;20045;-75
2023/09/01 04:40:24;;;;;;;47.35;43.97;;;19.90;99.90;;;;;;5012436;28;20033;-76
2023/09/01 04:42:50;;;;;;;40.80;38.45;;;19.90;99.90;;;;;;5012632;28;20030;-76
2023/09/01 04:45:17;;;;;;;47.88;45.15;;;19.90;99.90;;;;;;5011854;28;20387;-76
2023/09/01 04:47:43;;;;;;;40.60;38.25;;;20.00;99.90;;;;;;5011159;28;20056;-76
2023/09/01 04:50:09;;;;;;;44.33;41.78;;;20.10;99.90;;;;;;5012506;28;20030;-75
2023/09/01 04:52:36;;;;;;;45.47;42.60;;;20.10;99.90;;;;;;5012428;28;20042;-76
2023/09/01 04:55:07;;;;;;;54.22;51.28;;;20.10;99.90;;;;;;5012605;28;20391;-75
2023/09/01 04:57:35;;;;;;;44.42;41.67;;;20.10;99.90;;;;;;5012082;28;20034;-76
2023/09/01 05:00:02;;;;;;;37.97;35.25;;;20.00;99.90;;;;;;5011261;28;20371;-76
2023/09/01 05:02:28;;;;;;;32.88;30.77;;;20.00;99.90;;;;;;5011277;28;20499;-75
2023/09/01 05:04:54;;;;;;;35.05;32.65;;;20.00;99.90;;;;;;5011499;28;20045;-76
2023/09/01 05:07:20;;;;;;;33.20;31.10;;;20.00;99.90;;;;;;5012352;28;20479;-75
2023/09/01 05:09:46;;;;;;;37.20;34.60;;;20.00;99.90;;;;;;5012634;28;20026;-76
2023/09/01 05:12:13;;;;;;;42.28;39.50;;;19.90;99.90;;;;;;4992648;28;20026;-75
2023/09/01 05:14:39;;;;;;;40.45;37.33;;;19.90;99.90;;;;;;4976974;28;20046;-76
2023/09/01 05:17:05;;;;;;;32.80;30.77;;;19.90;99.90;;;;;;4994831;28;20042;-76
2023/09/01 05:19:31;;;;;;;33.67;31.58;;;19.90;99.90;;;;;;4995740;28;20038;-76
2023/09/01 05:21:57;;;;;;;36.40;33.83;;;19.90;99.90;;;;;;4996641;28;20038;-76
2023/09/01 05:24:23;;;;;;;34.17;31.73;;;19.90;99.90;;;;;;4996778;28;20487;-76
2023/09/01 05:26:49;;;;;;;39.22;36.85;;;19.90;99.90;;;;;;4996437;28;20041;-76
2023/09/01 05:29:15;;;;;;;36.40;34.22;;;20.00;99.90;;;;;;4996673;28;20030;-76
2023/09/01 05:31:42;;;;;;;43.22;40.72;;;20.00;99.90;;;;;;5005081;28;20360;-76
2023/09/01 05:34:08;;;;;;;40.38;37.95;;;20.00;99.90;;;;;;5014933;28;20041;-75
2023/09/01 05:36:36;;;;;;;38.00;35.55;;;20.00;99.90;;;;;;5014841;28;20395;-75
2023/09/01 05:39:03;;;;;;;44.38;41.85;;;19.90;99.90;;;;;;5015968;28;20026;-76
2023/09/01 05:41:29;;;;;;;39.97;37.60;;;20.00;99.90;;;;;;5014845;28;20386;-76
2023/09/01 05:43:55;;;;;;;39.63;37.33;;;19.90;99.90;;;;;;5014682;28;20030;-76
2023/09/01 05:46:22;;;;;;;45.28;42.38;;;20.00;99.90;;;;;;5024747;28;20040;-76
2023/09/01 05:48:48;;;;;;;38.60;36.17;;;19.90;99.90;;;;;;5035694;28;20426;-76
2023/09/01 05:51:14;;;;;;;38.58;36.03;;;20.00;99.90;;;;;;5035469;28;20025;-75
2023/09/01 05:53:40;;;;;;;41.92;39.20;;;19.90;99.90;;;;;;5035477;28;20420;-76
2023/09/01 05:56:06;;;;;;;38.47;36.13;;;19.90;99.90;;;;;;5035434;28;20037;-76
2023/09/01 05:58:33;;;;;;;41.83;39.28;;;19.90;99.90;;;;;;5035562;28;20033;-75
2023/09/01 06:01:00;;;;;;;38.45;36.08;;;20.00;99.90;;;;;;5034902;28;20040;-76
2023/09/01 06:03:26;;;;;;;34.63;32.47;;;20.00;99.90;;;;;;5035330;28;20051;-75
2023/09/01 06:05:52;;;;;;;41.47;38.80;;;20.00;99.90;;;;;;5035294;28;20033;-74
2023/09/01 06:08:19;;;;;;;42.03;39.25;;;20.00;99.90;;;;;;5033904;28;20029;-76
2023/09/01 06:10:45;;;;;;;39.85;37.22;;;20.00;99.90;;;;;;5035080;28;20025;-76
2023/09/01 06:13:11;;;;;;;35.20;32.55;;;20.00;99.90;;;;;;5033954;28;20029;-76
2023/09/01 06:15:37;;;;;;;22.35;20.42;;;20.00;99.90;;;;;;5034470;28;20446;-76
2023/09/01 06:18:03;;;;;;;26.45;24.67;;;20.00;99.90;;;;;;5035088;28;20037;-76
2023/09/01 06:20:29;;;;;;;16.35;15.05;;;20.00;99.90;;;;;;5035082;28;20467;-76
2023/09/01 06:22:56;;;;;;;18.52;17.10;;;20.20;99.90;;;;;;5034979;28;20482;-76
2023/09/01 06:25:22;;;;;;;24.70;23.13;;;20.20;99.90;;;;;;5034445;28;20025;-76
2023/09/01 06:27:48;;;;;;;18.65;17.30;;;20.20;99.90;;;;;;5033111;28;20026;-76
2023/09/01 06:30:14;;;;;;;21.38;20.02;;;20.20;99.90;;;;;;5034373;28;20029;-76
2023/09/01 06:32:40;;;;;;;21.42;19.52;;;20.20;99.90;;;;;;5034603;28;20037;-76
2023/09/01 06:35:07;;;;;;;22.40;20.80;;;20.30;99.90;;;;;;5034801;28;20458;-76
2023/09/01 06:37:33;;;;;;;24.33;22.52;;;20.40;99.90;;;;;;5034767;28;20048;-76
2023/09/01 06:39:59;;;;;;;22.52;20.98;;;20.40;99.90;;;;;;5034721;28;20383;-76
2023/09/01 06:42:25;;;;;;;22.00;20.33;;;20.50;99.90;;;;;;5034407;28;20486;-77
2023/09/01 06:44:51;;;;;;;24.38;22.50;;;20.40;99.90;;;;;;5034647;28;20029;-76
2023/09/01 06:47:17;;;;;;;22.08;20.38;;;20.40;99.90;;;;;;5032897;28;20506;-75
2023/09/01 06:49:43;;;;;;;23.75;22.02;;;20.40;99.90;;;;;;5034452;28;20026;-76
2023/09/01 06:52:09;;;;;;;22.55;20.67;;;20.40;99.90;;;;;;5033272;28;20041;-75
2023/09/01 06:54:37;;;;;;;21.05;19.38;;;20.40;99.90;;;;;;5033096;28;20045;-76
2023/09/01 06:57:04;;;;;;;22.67;21.02;;;20.40;99.90;;;;;;5016085;28;20057;-75
2023/09/01 06:59:30;;;;;;;22.77;21.20;;;20.40;99.90;;;;;;5033229;28;20039;-76
2023/09/01 07:01:56;;;;;;;21.35;19.83;;;20.50;99.90;;;;;;5032593;28;20041;-76
2023/09/01 07:04:22;;;;;;;20.35;18.63;;;20.40;99.90;;;;;;5033157;28;20536;-76
2023/09/01 07:06:48;;;;;;;21.52;19.48;;;20.40;99.90;;;;;;5034089;28;20041;-76
2023/09/01 07:09:14;;;;;;;21.98;20.33;;;20.40;99.90;;;;;;5034143;28;20092;-76
2023/09/01 07:11:40;;;;;;;23.95;22.17;;;20.50;99.90;;;;;;5033776;28;20040;-76
2023/09/01 07:14:06;;;;;;;21.08;19.45;;;20.50;99.90;;;;;;5034107;28;20029;-75
2023/09/01 07:16:32;;;;;;;24.75;22.88;;;20.50;99.90;;;;;;5033568;28;20033;-75
2023/09/01 07:18:58;;;;;;;22.30;20.63;;;20.50;99.90;;;;;;5034273;28;20453;-76
2023/09/01 07:21:24;;;;;;;32.03;30.05;;;20.50;99.90;;;;;;5033986;28;20029;-76
2023/09/01 07:23:50;;;;;;;32.83;30.85;;;20.60;99.90;;;;;;5032665;28;20374;-76
2023/09/01 07:26:17;;;;;;;26.38;24.52;;;20.70;99.90;;;;;;5033408;28;20037;-76
2023/09/01 07:28:43;;;;;;;21.13;19.65;;;20.80;99.90;;;;;;5033709;28;20037;-76
2023/09/01 07:31:11;;;;;;;21.63;19.92;;;20.70;99.90;;;;;;5033180;28;20041;-76
2023/09/01 07:33:37;;;;;;;23.60;22.15;;;20.70;99.90;;;;;;5033792;28;20021;-76
2023/09/01 07:36:03;;;;;;;32.17;30.42;;;20.80;99.90;;;;;;5015741;28;20049;-76
2023/09/01 07:38:29;;;;;;;32.47;30.65;;;20.90;99.90;;;;;;5032391;28;20029;-76
2023/09/01 07:40:55;;;;;;;45.47;42.72;;;20.90;99.90;;;;;;5032066;28;20033;-76
2023/09/01 07:43:21;;;;;;;46.25;43.65;;;21.00;99.90;;;;;;5033493;28;20348;-76
2023/09/01 07:45:48;;;;;;;51.92;49.00;;;21.10;99.90;;;;;;5033253;28;20041;-76
2023/09/01 07:48:14;;;;;;;60.78;57.47;;;21.20;99.90;;;;;;5033401;28;20378;-76
2023/09/01 07:50:40;;;;;;;58.42;55.30;;;21.10;99.90;;;;;;5031864;28;20032;-76
2023/09/01 07:53:06;;;;;;;99.15;94.25;;;21.10;99.90;;;;;;5033340;28;20445;-76
2023/09/01 07:55:32;;;;;;;41.20;38.88;;;21.10;99.90;;;;;;5033225;28;20052;-76
2023/09/01 07:57:59;;;;;;;36.65;34.63;;;21.20;99.90;;;;;;5033159;28;20033;-76
2023/09/01 08:00:25;;;;;;;28.98;27.13;;;21.30;99.90;;;;;;5032852;28;20030;-76
2023/09/01 08:02:51;;;;;;;32.40;30.48;;;21.30;99.90;;;;;;5033130;28;20048;-76
2023/09/01 08:05:17;;;;;;;29.85;28.08;;;21.30;99.90;;;;;;5033058;28;20037;-75
2023/09/01 08:07:43;;;;;;;29.42;27.42;;;21.30;99.90;;;;;;5033035;28;20040;-76
2023/09/01 08:10:10;;;;;;;29.42;27.70;;;21.30;99.90;;;;;;5032577;28;20029;-76
2023/09/01 08:12:36;;;;;;;34.05;32.10;;;21.40;99.90;;;;;;5031650;28;20367;-76
2023/09/01 08:15:02;;;;;;;34.40;32.42;;;21.40;99.90;;;;;;5031964;28;20026;-76
2023/09/01 08:17:28;;;;;;;34.75;32.70;;;21.40;99.90;;;;;;5032226;28;20052;-76
2023/09/01 08:19:54;;;;;;;43.50;40.95;;;21.40;99.90;;;;;;5032842;28;20029;-75
2023/09/01 08:22:20;;;;;;;55.85;52.70;;;21.50;99.90;;;;;;5032679;28;20033;-76
2023/09/01 08:24:47;;;;;;;65.50;62.05;;;21.50;99.90;;;;;;5014802;28;20022;-76
2023/09/01 08:27:13;;;;;;;72.25;68.55;;;21.50;99.90;;;;;;5032692;28;20035;-75
2023/09/01 08:29:39;;;;;;;83.18;78.80;;;21.60;99.90;;;;;;5031470;28;20021;-76
2023/09/01 08:32:05;;;;;;;108.53;103.05;;;21.80;99.90;;;;;;5032083;28;20077;-76
2023/09/01 08:34:31;;;;;;;98.20;93.28;;;21.90;99.90;;;;;;5032693;28;20048;-75
2023/09/01 08:36:58;;;;;;;107.13;101.85;;;22.00;99.90;;;;;;5014687;28;20049;-76
2023/09/01 08:39:24;;;;;;;100.03;94.97;;;22.10;99.90;;;;;;5032080;28;20036;-75
2023/09/01 08:41:50;;;;;;;69.65;65.93;;;22.20;99.90;;;;;;5031452;28;20051;-76
2023/09/01 08:44:20;;;;;;;41.72;39.35;;;22.30;99.90;;;;;;5031186;28;20036;-76
2023/09/01 08:46:46;;;;;;;54.30;51.13;;;22.40;99.90;;;;;;5031742;28;20418;-76
2023/09/01 08:49:12;;;;;;;58.10;55.00;;;22.50;99.90;;;;;;5030822;28;20032;-74
2023/09/01 08:51:40;;;;;;;39.80;37.65;;;22.60;99.90;;;;;;5030855;28;20044;-76
2023/09/01 08:54:07;;;;;;;31.67;29.75;;;22.60;99.90;;;;;;5032157;28;20042;-76
2023/09/01 08:56:34;;;;;;;33.95;31.67;;;22.60;99.90;;;;;;5031041;28;20037;-75
2023/09/01 08:59:00;;;;;;;31.42;29.50;;;22.60;99.90;;;;;;5032302;28;20041;-76
2023/09/01 09:01:27;;;;;;;31.58;29.75;;;22.70;99.90;;;;;;5031843;28;20037;-76
2023/09/01 09:03:53;;;;;;;32.33;30.50;;;22.80;99.90;;;;;;5031080;28;20038;-75
2023/09/01 09:06:33;;;;;;;42.15;39.60;;;22.80;99.90;;;;;;5032173;28;20037;-76
2023/09/01 09:09:15;;;;;;;36.25;34.25;;;22.90;99.90;;;;;;5030675;28;20033;-76
2023/09/01 09:11:57;;;;;;;35.22;33.20;;;22.90;99.90;;;;;;5032111;28;20040;-76
2023/09/01 09:14:24;;;;;;;31.58;29.73;;;23.00;99.90;;;;;;5014842;28;20032;-75
2023/09/01 09:16:54;;;;;;;34.83;32.88;;;23.00;99.90;;;;;;5030426;28;20045;-76
2023/09/01 09:19:21;;;;;;;33.45;31.63;;;22.90;99.90;;;;;;5030909;28;20034;-76
2023/09/01 09:21:47;;;;;;;37.85;35.90;;;22.90;99.90;;;;;;5030607;28;20033;-75
2023/09/01 09:24:13;;;;;;;36.28;34.05;;;22.90;99.90;;;;;;5030868;28;20030;-76
2023/09/01 09:26:39;;;;;;;38.55;36.50;;;22.90;99.90;;;;;;5030735;28;20033;-75
2023/09/01 09:29:06;;;;;;;42.28;40.08;;;22.90;99.90;;;;;;5032245;28;20034;-76
2023/09/01 09:31:36;;;;;;;44.95;42.53;;;23.00;99.90;;;;;;5013871;28;20045;-77
2023/09/01 09:34:15;;;;;;;41.17;38.93;;;23.00;99.90;;;;;;5030686;28;20040;-77
2023/09/01 09:36:42;;;;;;;39.95;37.65;;;23.00;99.90;;;;;;5031426;28;20037;-76
2023/09/01 09:39:22;;;;;;;39.22;36.80;;;23.10;99.90;;;;;;5030841;28;20021;-77
2023/09/01 09:41:48;;;;;;;37.45;35.38;;;23.10;99.90;;;;;;5030876;28;20033;-74
2023/09/01 09:44:27;;;;;;;38.72;36.60;;;23.20;99.90;;;;;;5030593;28;20041;-75
2023/09/01 09:46:53;;;;;;;36.97;34.95;;;23.30;99.90;;;;;;5029638;28;20033;-75
2023/09/01 09:49:20;;;;;;;41.85;39.50;;;23.30;99.90;;;;;;5014268;28;20398;-75
2023/09/01 09:51:48;;;;;;;39.38;37.15;;;23.40;99.90;;;;;;5030299;28;20034;-75
2023/09/01 09:54:14;;;;;;;39.70;37.50;;;23.30;99.90;;;;;;5030502;28;20060;-75
2023/09/01 09:56:40;;;;;;;39.33;37.30;;;23.40;99.90;;;;;;5030414;28;20040;-75
2023/09/01 09:59:06;;;;;;;33.25;31.48;;;23.50;99.90;;;;;;5030713;28;20379;-75
2023/09/01 10:01:37;;;;;;;43.38;41.03;;;23.50;99.90;;;;;;5031417;28;20387;-75
2023/09/01 10:04:07;;;;;;;50.13;47.50;;;23.50;99.90;;;;;;5034203;28;20026;-75
2023/09/01 10:06:36;;;;;;;95.38;90.68;;;23.40;99.90;;;;;;5033848;28;20036;-77
2023/09/01 10:09:05;;;;;;;83.13;78.90;;;23.40;99.90;;;;;;5034160;28;20052;-77
2023/09/01 10:11:31;;;;;;;82.53;78.22;;;23.40;99.90;;;;;;5033876;28;20032;-76
2023/09/01 10:13:58;;;;;;;64.38;61.10;;;23.40;99.90;;;;;;5034041;28;20033;-76
2023/09/01 10:16:24;;;;;;;69.10;65.70;;;23.40;99.90;;;;;;5033387;28;20044;-76
2023/09/01 10:18:50;;;;;;;76.68;72.85;;;23.40;99.90;;;;;;5035407;28;20379;-76
2023/09/01 10:21:16;;;;;;;49.55;46.58;;;23.40;99.90;;;;;;5033524;28;20029;-76
2023/09/01 10:23:48;;;;;;;44.38;41.90;;;23.30;99.90;;;;;;5033920;28;20041;-77
2023/09/01 10:26:28;;;;;;;47.90;45.38;;;23.40;99.90;;;;;;5033735;28;20487;-77
2023/09/01 10:29:03;;;;;;;40.17;38.17;;;23.40;99.90;;;;;;5034846;28;20030;-76
2023/09/01 10:31:30;;;;;;;39.78;37.53;;;23.40;99.90;;;;;;5017061;28;20153;-77
2023/09/01 10:34:12;;;;;;;38.30;36.40;;;23.50;99.90;;;;;;5033569;28;20041;-76
2023/09/01 10:36:42;;;;;;;46.78;44.33;;;23.50;99.90;;;;;;5033333;28;20049;-77
2023/09/01 10:39:23;;;;;;;48.38;45.83;;;23.50;99.90;;;;;;5033555;28;20033;-77
2023/09/01 10:41:59;;;;;;;;;;;23.40;99.90;;;;;;5035223;28;20037;-76
2023/09/01 10:44:48;;;;;;;31.52;29.83;;;23.30;99.90;;;;;;5034668;28;20267;-77
2023/09/01 10:47:32;;;;;;;34.85;32.95;;;23.30;99.90;;;;;;5027692;28;20034;-74
2023/09/01 10:49:59;;;;;;;39.05;36.35;;;23.30;99.90;;;;;;5034160;28;20499;-74
2023/09/01 10:52:28;;;;;;;41.33;39.35;;;23.20;99.90;;;;;;5034315;28;20032;-76
2023/09/01 10:55:02;;;;;;;41.97;39.80;;;23.30;99.90;;;;;;5033304;28;20030;-77
2023/09/01 10:57:48;;;;;;;43.08;40.90;;;23.30;99.90;;;;;;5034321;28;20045;-76
2023/09/01 11:00:30;;;;;;;42.25;39.95;;;23.40;99.90;;;;;;5032756;28;20022;-74
2023/09/01 11:03:30;;;;;;;43.55;41.10;;;23.50;99.90;;;;;;5033689;28;20037;-74
2023/09/01 11:05:57;;;;;;;44.00;41.78;;;23.50;99.90;;;;;;5033860;28;20025;-74
2023/09/01 11:08:25;;;;;;;42.08;39.55;;;23.60;99.90;;;;;;5032999;28;20029;-74
2023/09/01 11:10:55;;;;;;;40.63;38.47;;;23.60;99.90;;;;;;5032543;28;20037;-74
2023/09/01 11:13:22;;;;;;;47.37;44.83;;;23.50;99.90;;;;;;5033799;28;20049;-74
2023/09/01 11:15:49;;;;;;;47.13;44.67;;;23.50;99.90;;;;;;5031848;28;20034;-74
2023/09/01 11:18:17;;;;;;;49.25;46.65;;;23.60;99.90;;;;;;5033523;28;20037;-74
2023/09/01 11:20:43;;;;;;;50.65;48.05;;;23.60;99.90;;;;;;5016127;28;20033;-74
2023/09/01 11:23:09;;;;;;;49.10;46.55;;;23.60;99.90;;;;;;5032703;28;20033;-74
2023/09/01 11:25:35;;;;;;;53.08;50.38;;;23.60;99.90;;;;;;5032440;28;20073;-74
2023/09/01 11:28:02;;;;;;;51.80;49.13;;;23.60;99.90;;;;;;5032303;28;20030;-77
2023/09/01 11:30:28;;;;;;;50.88;48.20;;;23.60;99.90;;;;;;5031856;28;20038;-76
2023/09/01 11:32:55;;;;;;;53.13;50.45;;;23.70;99.90;;;;;;5033228;28;20033;-77
2023/09/01 11:35:28;;;;;;;52.33;49.70;;;23.70;99.90;;;;;;5033301;28;20029;-76
2023/09/01 11:37:56;;;;;;;52.20;49.55;;;23.80;99.90;;;;;;5032279;28;20383;-76
2023/09/01 11:40:23;;;;;;;52.33;49.70;;;23.90;99.90;;;;;;5032210;28;20017;-76
2023/09/01 11:42:49;;;;;;;61.53;58.50;;;23.90;99.90;;;;;;5032125;28;20025;-75
2023/09/01 11:45:15;;;;;;;55.60;52.75;;;23.90;99.90;;;;;;5032644;28;20044;-75
2023/09/01 11:47:42;;;;;;;62.10;58.95;;;23.70;99.90;;;;;;5033004;28;20379;-76
2023/09/01 11:50:12;;;;;;;56.50;53.72;;;23.60;99.90;;;;;;5032088;28;20088;-76
2023/09/01 11:52:56;;;;;;;55.83;52.97;;;23.50;99.90;;;;;;5031988;28;20721;-76
2023/09/01 11:55:34;;;;;;;54.53;51.70;;;23.40;99.90;;;;;;5031852;28;20445;-76
2023/09/01 11:58:00;;;;;;;50.38;47.53;;;23.40;99.90;;;;;;5031853;28;20045;-76
2023/09/01 12:00:31;;;;;;;49.75;47.00;;;23.40;99.90;;;;;;5032367;28;20040;-76
2023/09/01 12:02:59;;;;;;;52.42;49.65;;;23.40;99.90;;;;;;5031559;28;20367;-76
2023/09/01 12:05:35;;;;;;;54.95;52.13;;;23.40;99.90;;;;;;5032747;28;20028;-75
2023/09/01 12:08:02;;;;;;;55.47;52.47;;;23.60;99.90;;;;;;5032893;28;20029;-76
2023/09/01 12:10:29;;;;;;;50.38;47.72;;;23.60;99.90;;;;;;5031364;28;20029;-75
2023/09/01 12:13:10;;;;;;;58.30;55.38;;;23.60;99.90;;;;;;5031808;28;20038;-76
2023/09/01 12:15:56;;;;;;;59.53;56.20;;;23.60;99.90;;;;;;5030930;28;20025;-76
2023/09/01 12:18:25;;;;;;;55.58;52.80;;;23.60;99.90;;;;;;5014953;28;20049;-76
2023/09/01 12:20:52;;;;;;;60.15;56.83;;;23.60;99.90;;;;;;5032480;28;20026;-76
2023/09/01 12:23:43;;;;;;;55.38;52.25;;;23.50;99.90;;;;;;5031111;28;20474;-76
2023/09/01 12:26:10;;;;;;;61.03;57.70;;;23.40;99.90;;;;;;5031117;28;20026;-76
2023/09/01 12:28:37;;;;;;;51.17;48.60;;;23.40;99.90;;;;;;5031347;28;20033;-76
2023/09/01 12:31:04;;;;;;;66.45;63.15;;;23.30;99.90;;;;;;5030335;28;20037;-76
2023/09/01 12:33:31;;;;;;;47.97;45.42;;;23.40;99.90;;;;;;5031341;28;20374;-76